createdAt,value
2022-09-15T00:00:39.734Z,264.70
2022-09-15T00:01:42.043Z,268.10
2022-09-15T00:02:39.590Z,249.80
2022-09-15T00:03:39.485Z,261.10
2022-09-15T00:04:39.413Z,304.50
2022-09-15T00:05:39.356Z,334.90
2022-09-15T00:06:39.299Z,326.20
2022-09-15T00:07:39.244Z,322.00
2022-09-15T00:08:39.155Z,331.10
2022-09-15T00:09:39.100Z,342.00
2022-09-15T00:10:39.037Z,328.90
2022-09-15T00:11:38.970Z,359.40
2022-09-15T00:12:38.903Z,387.20
2022-09-15T00:13:38.833Z,416.80
2022-09-15T00:14:38.756Z,408.50
2022-09-15T00:15:38.694Z,415.20
2022-09-15T00:16:38.710Z,434.60
2022-09-15T00:17:38.574Z,433.00
2022-09-15T00:18:38.503Z,431.80
2022-09-15T00:19:39.554Z,455.80
2022-09-15T00:20:38.376Z,438.70
2022-09-15T00:21:38.313Z,448.10
2022-09-15T00:22:38.253Z,460.90
2022-09-15T00:23:38.171Z,468.90
2022-09-15T00:24:38.120Z,492.10
2022-09-15T00:25:38.065Z,483.70
2022-09-15T00:26:37.992Z,484.60
2022-09-15T00:27:37.935Z,495.20
2022-09-15T00:28:37.867Z,486.00
2022-09-15T00:29:37.800Z,528.90
2022-09-15T00:30:37.748Z,503.30
2022-09-15T00:31:38.894Z,504.60
2022-09-15T00:32:37.577Z,510.20
2022-09-15T00:33:37.512Z,491.80
2022-09-15T00:34:37.463Z,519.80
2022-09-15T00:35:37.382Z,513.80
2022-09-15T00:36:37.320Z,506.90
2022-09-15T00:37:37.284Z,518.70
2022-09-15T00:38:37.184Z,526.70
2022-09-15T00:39:37.130Z,540.90
2022-09-15T00:40:37.061Z,522.00
2022-09-15T00:41:36.992Z,508.90
2022-09-15T00:42:36.945Z,511.80
2022-09-15T00:43:36.892Z,517.30
2022-09-15T00:44:36.790Z,530.00
2022-09-15T00:45:36.796Z,548.90
2022-09-15T00:46:36.677Z,556.30
2022-09-15T00:47:36.597Z,570.60
2022-09-15T00:48:36.551Z,562.10
2022-09-15T00:49:37.275Z,583.70
2022-09-15T00:50:36.394Z,564.70
2022-09-15T00:51:36.384Z,541.90
2022-09-15T00:52:36.283Z,579.20
2022-09-15T00:53:36.199Z,571.30
2022-09-15T00:54:36.147Z,518.60
2022-09-15T00:55:38.051Z,503.10
2022-09-15T00:56:36.013Z,483.80
2022-09-15T00:57:35.950Z,477.40
2022-09-15T00:58:35.884Z,456.60
2022-09-15T00:59:35.802Z,504.20
2022-09-15T01:00:35.742Z,504.00
2022-09-15T01:01:35.851Z,538.70
2022-09-15T01:02:35.702Z,577.00
2022-09-15T01:03:35.541Z,559.10
2022-09-15T01:04:35.481Z,547.30
2022-09-15T01:05:35.424Z,530.70
2022-09-15T01:06:35.343Z,519.20
2022-09-15T01:07:35.309Z,527.20
2022-09-15T01:08:35.220Z,542.90
2022-09-15T01:09:35.163Z,540.30
2022-09-15T01:10:35.096Z,501.70
2022-09-15T01:11:35.035Z,508.20
2022-09-15T01:12:34.950Z,485.50
2022-09-15T01:13:36.092Z,512.40
2022-09-15T01:14:34.842Z,484.20
2022-09-15T01:15:34.758Z,523.10
2022-09-15T01:16:34.766Z,535.80
2022-09-15T01:17:34.639Z,539.30
2022-09-15T01:18:34.575Z,527.10
2022-09-15T01:19:34.518Z,477.50
2022-09-15T01:20:34.426Z,477.10
2022-09-15T01:21:34.362Z,507.80
2022-09-15T01:22:34.319Z,489.80
2022-09-15T01:23:34.248Z,503.30
2022-09-15T01:24:34.184Z,520.40
2022-09-15T01:25:34.401Z,514.50
2022-09-15T01:26:34.049Z,484.60
2022-09-15T01:27:42.877Z,462.30
2022-09-15T01:28:33.912Z,445.20
2022-09-15T01:29:33.843Z,478.60
2022-09-15T01:30:33.797Z,440.70
2022-09-15T01:31:33.756Z,454.50
2022-09-15T01:32:33.648Z,492.70
2022-09-15T01:33:33.617Z,445.10
2022-09-15T01:34:33.526Z,448.00
2022-09-15T01:35:33.455Z,474.60
2022-09-15T01:36:33.408Z,491.50
2022-09-15T01:37:35.617Z,439.70
2022-09-15T01:38:33.253Z,444.00
2022-09-15T01:39:33.190Z,480.60
2022-09-15T01:40:33.214Z,451.70
2022-09-15T01:41:33.053Z,456.30
2022-09-15T01:42:33.000Z,464.10
2022-09-15T01:43:32.929Z,454.70
2022-09-15T01:44:32.871Z,475.30
2022-09-15T01:45:32.864Z,461.50
2022-09-15T01:46:32.730Z,468.80
2022-09-15T01:47:32.686Z,424.10
2022-09-15T01:48:32.608Z,436.00
2022-09-15T01:49:32.547Z,437.10
2022-09-15T01:50:32.459Z,456.40
2022-09-15T01:51:32.395Z,454.40
2022-09-15T01:52:32.347Z,453.70
2022-09-15T01:53:32.293Z,456.70
2022-09-15T01:54:32.211Z,526.70
2022-09-15T01:55:32.164Z,532.70
2022-09-15T01:56:32.071Z,580.30
2022-09-15T01:57:32.015Z,655.50
2022-09-15T01:58:31.940Z,695.90
2022-09-15T01:59:31.886Z,567.70
2022-09-15T02:00:31.805Z,631.60
2022-09-15T02:01:32.616Z,702.80
2022-09-15T02:02:31.757Z,678.60
2022-09-15T02:03:31.626Z,669.60
2022-09-15T02:04:31.585Z,591.80
2022-09-15T02:05:31.521Z,622.30
2022-09-15T02:06:31.420Z,717.50
2022-09-15T02:07:32.125Z,711.20
2022-09-15T02:08:31.295Z,773.70
2022-09-15T02:09:31.238Z,798.90
2022-09-15T02:10:31.159Z,787.60
2022-09-15T02:11:31.124Z,652.30
2022-09-15T02:12:31.018Z,739.10
2022-09-15T02:13:30.984Z,749.70
2022-09-15T02:14:30.904Z,695.20
2022-09-15T02:15:30.816Z,737.80
2022-09-15T02:16:30.843Z,642.60
2022-09-15T02:17:30.699Z,580.40
2022-09-15T02:18:30.620Z,672.90
2022-09-15T02:19:32.883Z,660.80
2022-09-15T02:20:30.495Z,672.50
2022-09-15T02:21:30.429Z,701.20
2022-09-15T02:22:30.371Z,686.50
2022-09-15T02:23:30.345Z,646.80
2022-09-15T02:24:30.254Z,682.50
2022-09-15T02:25:30.169Z,630.20
2022-09-15T02:26:30.140Z,647.00
2022-09-15T02:27:30.035Z,669.50
2022-09-15T02:28:29.969Z,634.50
2022-09-15T02:29:29.923Z,630.50
2022-09-15T02:30:29.850Z,688.80
2022-09-15T02:31:30.115Z,620.50
2022-09-15T02:32:29.719Z,606.40
2022-09-15T02:33:29.639Z,615.80
2022-09-15T02:34:29.579Z,639.90
2022-09-15T02:35:29.506Z,611.20
2022-09-15T02:36:29.442Z,570.90
2022-09-15T02:37:29.387Z,582.30
2022-09-15T02:38:29.329Z,585.20
2022-09-15T02:39:29.251Z,579.20
2022-09-15T02:40:29.267Z,567.40
2022-09-15T02:41:29.116Z,549.20
2022-09-15T02:42:29.052Z,551.80
2022-09-15T02:43:29.780Z,576.80
2022-09-15T02:44:28.933Z,574.70
2022-09-15T02:45:28.916Z,551.60
2022-09-15T02:46:28.786Z,568.70
2022-09-15T02:47:28.732Z,517.20
2022-09-15T02:48:28.654Z,547.10
2022-09-15T02:49:28.614Z,516.70
2022-09-15T02:50:28.523Z,576.80
2022-09-15T02:51:28.475Z,528.90
2022-09-15T02:52:28.389Z,573.60
2022-09-15T02:53:28.352Z,585.40
2022-09-15T02:54:28.263Z,569.40
2022-09-15T02:55:28.216Z,564.90
2022-09-15T02:56:28.132Z,562.30
2022-09-15T02:57:28.080Z,560.60
2022-09-15T02:58:28.001Z,563.60
2022-09-15T02:59:27.933Z,531.60
2022-09-15T03:00:27.862Z,566.80
2022-09-15T03:01:27.918Z,565.50
2022-09-15T03:02:27.816Z,551.70
2022-09-15T03:03:27.674Z,583.10
2022-09-15T03:04:27.605Z,546.70
2022-09-15T03:05:27.571Z,593.70
2022-09-15T03:06:27.492Z,568.50
2022-09-15T03:07:27.420Z,544.40
2022-09-15T03:08:27.351Z,590.10
2022-09-15T03:09:27.299Z,603.40
2022-09-15T03:10:27.257Z,572.70
2022-09-15T03:11:27.157Z,579.10
2022-09-15T03:12:27.079Z,629.70
2022-09-15T03:13:27.040Z,567.30
2022-09-15T03:14:26.944Z,569.20
2022-09-15T03:15:26.883Z,559.80
2022-09-15T03:16:26.878Z,529.10
2022-09-15T03:17:26.766Z,550.10
2022-09-15T03:18:26.695Z,604.90
2022-09-15T03:19:30.321Z,559.00
2022-09-15T03:20:26.551Z,544.70
2022-09-15T03:21:26.497Z,560.80
2022-09-15T03:22:26.422Z,590.60
2022-09-15T03:23:26.351Z,582.20
2022-09-15T03:24:26.298Z,527.40
2022-09-15T03:25:26.237Z,564.60
2022-09-15T03:26:26.165Z,559.40
2022-09-15T03:27:26.114Z,567.30
2022-09-15T03:28:26.047Z,549.40
2022-09-15T03:29:25.958Z,570.50
2022-09-15T03:30:25.914Z,538.10
2022-09-15T03:31:26.649Z,517.00
2022-09-15T03:32:25.763Z,508.90
2022-09-15T03:33:25.699Z,555.00
2022-09-15T03:34:25.632Z,499.00
2022-09-15T03:35:25.583Z,567.50
2022-09-15T03:36:25.512Z,529.50
2022-09-15T03:37:26.269Z,560.40
2022-09-15T03:38:25.391Z,529.80
2022-09-15T03:39:25.312Z,552.30
2022-09-15T03:40:25.311Z,591.60
2022-09-15T03:41:25.192Z,567.80
2022-09-15T03:42:25.107Z,572.10
2022-09-15T03:43:26.273Z,547.90
2022-09-15T03:44:24.986Z,586.50
2022-09-15T03:45:25.000Z,540.40
2022-09-15T03:46:24.848Z,566.60
2022-09-15T03:47:24.777Z,560.10
2022-09-15T03:48:24.734Z,577.80
2022-09-15T03:49:28.457Z,528.50
2022-09-15T03:50:24.595Z,556.40
2022-09-15T03:51:24.538Z,579.40
2022-09-15T03:52:24.450Z,543.20
2022-09-15T03:53:24.390Z,582.40
2022-09-15T03:54:24.341Z,592.90
2022-09-15T03:55:25.063Z,542.70
2022-09-15T03:56:24.191Z,569.50
2022-09-15T03:57:24.136Z,589.80
2022-09-15T03:58:26.818Z,596.30
2022-09-15T03:59:24.009Z,585.20
2022-09-15T04:00:23.940Z,533.60
2022-09-15T04:01:23.890Z,599.00
2022-09-15T04:02:23.879Z,587.60
2022-09-15T04:03:23.741Z,602.50
2022-09-15T04:04:23.665Z,644.10
2022-09-15T04:05:23.614Z,608.20
2022-09-15T04:06:23.551Z,579.60
2022-09-15T04:07:25.049Z,588.80
2022-09-15T04:08:23.418Z,662.00
2022-09-15T04:09:23.348Z,657.10
2022-09-15T04:10:23.282Z,628.90
2022-09-15T04:11:23.209Z,582.80
2022-09-15T04:12:23.157Z,623.00
2022-09-15T04:13:28.459Z,645.70
2022-09-15T04:14:23.007Z,608.60
2022-09-15T04:15:22.946Z,581.00
2022-09-15T04:16:22.949Z,618.40
2022-09-15T04:17:22.772Z,636.70
2022-09-15T04:18:22.772Z,622.10
2022-09-15T04:19:22.717Z,586.40
2022-09-15T04:20:22.644Z,622.60
2022-09-15T04:21:22.548Z,583.80
2022-09-15T04:22:22.502Z,658.00
2022-09-15T04:23:22.416Z,648.80
2022-09-15T04:24:22.353Z,626.80
2022-09-15T04:25:23.070Z,637.90
2022-09-15T04:26:22.222Z,617.70
2022-09-15T04:27:22.124Z,587.00
2022-09-15T04:28:22.089Z,665.90
2022-09-15T04:29:22.046Z,604.40
2022-09-15T04:30:21.976Z,635.50
2022-09-15T04:31:23.481Z,632.00
2022-09-15T04:32:21.841Z,638.30
2022-09-15T04:33:21.774Z,636.80
2022-09-15T04:34:21.673Z,649.80
2022-09-15T04:35:21.604Z,693.20
2022-09-15T04:36:21.512Z,601.70
2022-09-15T04:37:21.478Z,629.10
2022-09-15T04:38:21.382Z,620.30
2022-09-15T04:39:21.328Z,606.30
2022-09-15T04:40:21.307Z,628.10
2022-09-15T04:41:21.199Z,616.50
2022-09-15T04:42:21.130Z,605.10
2022-09-15T04:43:21.849Z,566.60
2022-09-15T04:44:21.006Z,603.60
2022-09-15T04:45:20.939Z,589.00
2022-09-15T04:46:20.926Z,589.70
2022-09-15T04:47:20.808Z,596.70
2022-09-15T04:48:20.729Z,582.30
2022-09-15T04:49:20.683Z,607.20
2022-09-15T04:50:20.599Z,629.10
2022-09-15T04:51:20.536Z,562.70
2022-09-15T04:52:20.466Z,600.90
2022-09-15T04:53:20.402Z,595.00
2022-09-15T04:54:20.381Z,619.80
2022-09-15T04:55:20.297Z,616.40
2022-09-15T04:56:20.231Z,604.50
2022-09-15T04:57:20.158Z,629.30
2022-09-15T04:58:20.090Z,633.00
2022-09-15T04:59:20.029Z,618.50
2022-09-15T05:00:19.964Z,626.70
2022-09-15T05:01:19.937Z,614.00
2022-09-15T05:02:19.865Z,650.40
2022-09-15T05:03:19.748Z,667.50
2022-09-15T05:04:19.683Z,645.00
2022-09-15T05:05:19.631Z,615.50
2022-09-15T05:06:19.561Z,672.00
2022-09-15T05:07:19.539Z,672.70
2022-09-15T05:08:19.444Z,680.70
2022-09-15T05:09:19.352Z,655.50
2022-09-15T05:10:19.291Z,644.80
2022-09-15T05:11:19.229Z,644.50
2022-09-15T05:12:19.173Z,672.00
2022-09-15T05:13:19.108Z,648.50
2022-09-15T05:14:19.038Z,635.40
2022-09-15T05:15:18.977Z,629.00
2022-09-15T05:16:18.957Z,638.10
2022-09-15T05:17:18.828Z,630.70
2022-09-15T05:18:18.810Z,662.90
2022-09-15T05:19:18.721Z,643.60
2022-09-15T05:20:18.640Z,615.70
2022-09-15T05:21:18.569Z,642.00
2022-09-15T05:22:18.522Z,647.40
2022-09-15T05:23:18.441Z,653.20
2022-09-15T05:24:18.409Z,645.50
2022-09-15T05:25:21.396Z,633.00
2022-09-15T05:26:18.254Z,639.90
2022-09-15T05:27:18.195Z,611.90
2022-09-15T05:28:18.114Z,627.60
2022-09-15T05:29:18.061Z,637.70
2022-09-15T05:30:36.739Z,604.70
2022-09-15T05:31:18.052Z,660.20
2022-09-15T05:32:17.860Z,639.70
2022-09-15T05:33:17.799Z,641.30
2022-09-15T05:34:17.716Z,633.60
2022-09-15T05:35:17.678Z,626.70
2022-09-15T05:36:17.606Z,623.00
2022-09-15T05:37:19.761Z,632.90
2022-09-15T05:38:17.477Z,631.30
2022-09-15T05:39:17.437Z,593.30
2022-09-15T05:40:17.372Z,628.90
2022-09-15T05:41:17.308Z,602.60
2022-09-15T05:42:17.204Z,612.80
2022-09-15T05:43:18.735Z,586.50
2022-09-15T05:44:17.094Z,613.00
2022-09-15T05:45:17.555Z,614.70
2022-09-15T05:46:17.011Z,616.60
2022-09-15T05:47:16.877Z,619.70
2022-09-15T05:48:16.850Z,613.10
2022-09-15T05:49:22.420Z,617.50
2022-09-15T05:50:17.547Z,554.60
2022-09-15T05:51:16.624Z,568.80
2022-09-15T05:52:16.551Z,550.00
2022-09-15T05:53:16.480Z,558.80
2022-09-15T05:54:16.426Z,579.40
2022-09-15T05:55:16.362Z,605.60
2022-09-15T05:56:16.324Z,587.90
2022-09-15T05:57:16.240Z,594.70
2022-09-15T05:58:16.162Z,613.60
2022-09-15T05:59:16.098Z,570.40
2022-09-15T06:00:16.013Z,556.00
2022-09-15T06:01:15.990Z,583.70
2022-09-15T06:02:15.936Z,583.80
2022-09-15T06:03:15.944Z,564.90
2022-09-15T06:04:15.750Z,576.40
2022-09-15T06:05:15.685Z,580.90
2022-09-15T06:06:15.640Z,575.40
2022-09-15T06:07:16.354Z,569.90
2022-09-15T06:08:15.570Z,560.90
2022-09-15T06:09:15.427Z,555.30
2022-09-15T06:10:15.374Z,524.10
2022-09-15T06:11:15.311Z,563.00
2022-09-15T06:12:15.234Z,548.40
2022-09-15T06:13:17.485Z,553.90
2022-09-15T06:14:15.101Z,549.70
2022-09-15T06:15:15.042Z,522.90
2022-09-15T06:16:15.034Z,525.60
2022-09-15T06:17:14.970Z,541.20
2022-09-15T06:18:14.956Z,568.50
2022-09-15T06:19:14.934Z,547.50
2022-09-15T06:20:15.686Z,550.10
2022-09-15T06:21:14.697Z,524.90
2022-09-15T06:22:14.593Z,498.60
2022-09-15T06:23:14.507Z,512.30
2022-09-15T06:24:14.442Z,459.00
2022-09-15T06:25:14.441Z,465.40
2022-09-15T06:26:14.314Z,426.60
2022-09-15T06:27:14.298Z,457.60
2022-09-15T06:28:14.208Z,435.40
2022-09-15T06:29:14.131Z,419.30
2022-09-15T06:30:14.073Z,411.70
2022-09-15T06:31:18.789Z,402.10
2022-09-15T06:32:13.963Z,344.90
2022-09-15T06:33:13.865Z,315.40
2022-09-15T06:34:13.784Z,278.30
2022-09-15T06:35:13.741Z,270.10
2022-09-15T06:36:13.673Z,263.90
2022-09-15T06:37:13.646Z,268.10
2022-09-15T06:38:13.528Z,256.60
2022-09-15T06:39:13.524Z,277.00
2022-09-15T06:40:13.514Z,240.30
2022-09-15T06:41:13.347Z,217.60
2022-09-15T06:42:13.997Z,173.50
2022-09-15T06:43:13.263Z,164.80
2022-09-15T06:44:13.209Z,158.40
2022-09-15T06:45:13.086Z,173.90
2022-09-15T06:46:13.163Z,153.10
2022-09-15T06:47:12.955Z,149.80
2022-09-15T06:48:24.389Z,146.40
2022-09-15T06:49:15.262Z,147.50
2022-09-15T06:50:12.758Z,151.20
2022-09-15T06:51:12.675Z,144.40
2022-09-15T06:52:12.628Z,146.40
2022-09-15T06:53:12.552Z,187.60
2022-09-15T06:54:12.510Z,178.00
2022-09-15T06:55:13.539Z,164.20
2022-09-15T06:56:12.364Z,160.90
2022-09-15T06:57:12.281Z,185.10
2022-09-15T06:58:12.241Z,160.30
2022-09-15T06:59:12.193Z,161.70
2022-09-15T07:00:12.295Z,161.30
2022-09-15T07:01:12.049Z,162.60
2022-09-15T07:02:12.131Z,196.10
2022-09-15T07:03:12.006Z,181.10
2022-09-15T07:04:11.845Z,188.00
2022-09-15T07:05:11.766Z,141.30
2022-09-15T07:06:11.716Z,121.20
2022-09-15T07:07:12.418Z,103.20
2022-09-15T07:08:11.583Z,106.20
2022-09-15T07:09:11.521Z,126.60
2022-09-15T07:10:11.465Z,128.30
2022-09-15T07:11:11.383Z,135.60
2022-09-15T07:12:11.318Z,121.30
2022-09-15T07:13:12.268Z,118.30
2022-09-15T07:14:11.190Z,104.70
2022-09-15T07:15:11.125Z,97.40
2022-09-15T07:16:11.122Z,102.80
2022-09-15T07:17:10.992Z,125.40
2022-09-15T07:18:10.938Z,90.40
2022-09-15T07:19:12.065Z,110.20
2022-09-15T07:20:11.087Z,115.70
2022-09-15T07:21:10.732Z,120.30
2022-09-15T07:22:10.792Z,114.80
2022-09-15T07:23:10.607Z,129.20
2022-09-15T07:24:10.554Z,99.60
2022-09-15T07:25:11.259Z,93.20
2022-09-15T07:26:10.404Z,104.40
2022-09-15T07:27:10.347Z,100.10
2022-09-15T07:28:10.260Z,158.00
2022-09-15T07:29:10.214Z,129.50
2022-09-15T07:30:10.153Z,110.50
2022-09-15T07:31:10.897Z,97.50
2022-09-15T07:32:10.099Z,112.90
2022-09-15T07:33:09.952Z,122.30
2022-09-15T07:34:09.883Z,87.40
2022-09-15T07:35:09.835Z,94.90
2022-09-15T07:36:09.740Z,101.40
2022-09-15T07:37:10.458Z,114.10
2022-09-15T07:38:09.626Z,129.60
2022-09-15T07:39:09.554Z,127.50
2022-09-15T07:40:09.565Z,87.90
2022-09-15T07:41:09.452Z,96.30
2022-09-15T07:42:09.429Z,81.80
2022-09-15T07:43:09.301Z,89.50
2022-09-15T07:44:09.237Z,77.00
2022-09-15T07:45:09.155Z,89.10
2022-09-15T07:46:09.174Z,103.50
2022-09-15T07:47:09.030Z,86.50
2022-09-15T07:48:08.999Z,91.70
2022-09-15T07:49:09.690Z,91.30
2022-09-15T07:50:08.829Z,93.80
2022-09-15T07:51:08.767Z,79.00
2022-09-15T07:52:08.705Z,69.00
2022-09-15T07:53:08.687Z,68.60
2022-09-15T07:54:08.583Z,73.70
2022-09-15T07:55:08.538Z,85.60
2022-09-15T07:56:08.451Z,83.80
2022-09-15T07:57:08.374Z,92.50
2022-09-15T07:58:08.310Z,71.00
2022-09-15T07:59:08.289Z,83.10
2022-09-15T08:00:08.182Z,73.20
2022-09-15T08:01:09.390Z,74.80
2022-09-15T08:02:08.147Z,89.30
2022-09-15T08:03:07.977Z,114.10
2022-09-15T08:04:07.937Z,89.30
2022-09-15T08:05:07.864Z,91.80
2022-09-15T08:06:07.825Z,92.10
2022-09-15T08:07:09.259Z,77.30
2022-09-15T08:08:07.708Z,82.60
2022-09-15T08:09:08.034Z,83.70
2022-09-15T08:10:08.023Z,95.40
2022-09-15T08:11:08.679Z,92.50
2022-09-15T08:12:07.547Z,93.40
2022-09-15T08:13:08.302Z,104.40
2022-09-15T08:14:07.923Z,105.00
2022-09-15T08:15:07.229Z,84.10
2022-09-15T08:16:07.255Z,87.40
2022-09-15T08:17:11.230Z,111.50
2022-09-15T08:18:07.059Z,112.80
2022-09-15T08:19:06.960Z,93.10
2022-09-15T08:20:06.882Z,80.30
2022-09-15T08:21:06.822Z,68.80
2022-09-15T08:22:06.776Z,54.20
2022-09-15T08:23:06.757Z,65.70
2022-09-15T08:24:06.649Z,62.10
2022-09-15T08:25:06.578Z,63.20
2022-09-15T08:26:08.786Z,51.50
2022-09-15T08:27:06.458Z,29.40
2022-09-15T08:28:06.428Z,32.70
2022-09-15T08:29:06.295Z,26.60
2022-09-15T08:30:06.269Z,38.50
2022-09-15T08:31:06.194Z,35.50
2022-09-15T08:32:06.109Z,31.50
2022-09-15T08:33:06.039Z,25.00
2022-09-15T08:34:05.972Z,46.90
2022-09-15T08:35:05.913Z,60.40
2022-09-15T08:36:05.870Z,40.30
2022-09-15T08:37:06.675Z,36.40
2022-09-15T08:38:05.722Z,39.40
2022-09-15T08:39:05.672Z,41.40
2022-09-15T08:40:05.666Z,36.40
2022-09-15T08:41:05.525Z,32.00
2022-09-15T08:42:05.483Z,32.90
2022-09-15T08:43:05.419Z,21.30
2022-09-15T08:44:05.338Z,33.80
2022-09-15T08:45:05.250Z,27.20
2022-09-15T08:46:05.243Z,37.10
2022-09-15T08:47:05.125Z,33.60
2022-09-15T08:48:05.068Z,26.50
2022-09-15T08:49:05.763Z,33.00
2022-09-15T08:50:04.927Z,24.70
2022-09-15T08:51:04.865Z,21.30
2022-09-15T08:52:04.791Z,35.80
2022-09-15T08:53:04.786Z,19.60
2022-09-15T08:54:05.154Z,32.30
2022-09-15T08:55:07.312Z,34.10
2022-09-15T08:56:07.179Z,30.40
2022-09-15T08:57:04.502Z,32.10
2022-09-15T08:58:04.419Z,36.60
2022-09-15T08:59:04.364Z,32.30
2022-09-15T09:00:04.284Z,41.00
2022-09-15T09:01:05.024Z,42.20
2022-09-15T09:02:04.206Z,33.90
2022-09-15T09:03:04.153Z,28.80
2022-09-15T09:04:04.061Z,50.60
2022-09-15T09:05:03.934Z,35.60
2022-09-15T09:06:03.889Z,49.30
2022-09-15T09:07:05.022Z,34.20
2022-09-15T09:08:03.810Z,39.30
2022-09-15T09:09:03.697Z,50.20
2022-09-15T09:10:03.655Z,55.10
2022-09-15T09:11:03.599Z,46.30
2022-09-15T09:12:03.523Z,58.60
2022-09-15T09:13:03.451Z,63.30
2022-09-15T09:14:03.488Z,59.40
2022-09-15T09:15:03.333Z,62.90
2022-09-15T09:16:03.668Z,66.40
2022-09-15T09:17:03.195Z,79.40
2022-09-15T09:18:03.119Z,68.20
2022-09-15T09:19:03.893Z,65.40
2022-09-15T09:20:02.958Z,68.10
2022-09-15T09:21:02.918Z,66.00
2022-09-15T09:22:02.860Z,67.40
2022-09-15T09:23:02.790Z,58.70
2022-09-15T09:24:02.705Z,45.80
2022-09-15T09:25:21.290Z,65.60
2022-09-15T09:26:02.607Z,53.20
2022-09-15T09:27:02.531Z,62.50
2022-09-15T09:28:02.538Z,54.80
2022-09-15T09:29:02.404Z,67.20
2022-09-15T09:30:02.348Z,53.50
2022-09-15T09:31:02.361Z,63.30
2022-09-15T09:32:02.190Z,47.90
2022-09-15T09:33:02.116Z,59.60
2022-09-15T09:34:02.065Z,46.20
2022-09-15T09:35:02.045Z,57.00
2022-09-15T09:36:01.970Z,39.10
2022-09-15T09:37:04.033Z,36.30
2022-09-15T09:38:01.806Z,63.70
2022-09-15T09:39:01.754Z,45.10
2022-09-15T09:40:01.857Z,37.60
2022-09-15T09:41:02.702Z,33.70
2022-09-15T09:42:01.617Z,158.10
2022-09-15T09:43:01.520Z,56.20
2022-09-15T09:44:01.399Z,112.20
2022-09-15T09:45:01.341Z,22.00
2022-09-15T09:46:01.330Z,15.00
2022-09-15T09:47:01.218Z,23.80
2022-09-15T09:48:01.853Z,12.90
2022-09-15T09:49:02.314Z,12.30
2022-09-15T09:50:01.029Z,11.60
2022-09-15T09:51:00.962Z,15.80
2022-09-15T09:52:00.898Z,86.10
2022-09-15T09:53:00.826Z,87.10
2022-09-15T09:54:00.770Z,23.80
2022-09-15T09:55:01.922Z,20.10
2022-09-15T09:56:00.635Z,19.60
2022-09-15T09:57:00.570Z,19.50
2022-09-15T09:58:00.497Z,19.00
2022-09-15T09:59:00.464Z,13.20
2022-09-15T10:00:00.363Z,11.20
2022-09-15T10:01:00.361Z,16.80
2022-09-15T10:02:00.229Z,14.00
2022-09-15T10:03:00.207Z,15.70
2022-09-15T10:04:00.111Z,14.70
2022-09-15T10:05:00.088Z,18.40
2022-09-15T10:06:00.003Z,14.30
2022-09-15T10:06:59.935Z,15.90
2022-09-15T10:07:59.880Z,15.00
2022-09-15T10:08:59.878Z,22.20
2022-09-15T10:09:59.721Z,9.60
2022-09-15T10:10:59.643Z,12.10
2022-09-15T10:11:59.581Z,20.70
2022-09-15T10:13:00.630Z,14.10
2022-09-15T10:13:59.464Z,19.30
2022-09-15T10:14:59.388Z,10.10
2022-09-15T10:15:59.337Z,17.00
2022-09-15T10:16:59.995Z,10.50
2022-09-15T10:17:59.187Z,16.60
2022-09-15T10:18:59.147Z,13.80
2022-09-15T10:19:59.076Z,9.80
2022-09-15T10:20:59.008Z,10.90
2022-09-15T10:21:58.952Z,10.30
2022-09-15T10:22:58.891Z,13.70
2022-09-15T10:23:58.844Z,10.80
2022-09-15T10:25:00.290Z,16.00
2022-09-15T10:26:00.175Z,15.40
2022-09-15T10:26:58.607Z,10.80
2022-09-15T10:27:58.570Z,8.30
2022-09-15T10:28:58.478Z,20.50
2022-09-15T10:29:58.431Z,8.10
2022-09-15T10:30:58.416Z,15.70
2022-09-15T10:31:58.338Z,5.30
2022-09-15T10:32:58.237Z,6.70
2022-09-15T10:33:58.195Z,6.60
2022-09-15T10:34:58.123Z,9.70
2022-09-15T10:35:58.047Z,16.10
2022-09-15T10:36:57.993Z,7.00
2022-09-15T10:37:57.933Z,6.40
2022-09-15T10:38:57.823Z,7.80
2022-09-15T10:39:57.809Z,5.70
2022-09-15T10:40:57.747Z,9.70
2022-09-15T10:41:57.666Z,9.60
2022-09-15T10:42:59.917Z,16.30
2022-09-15T10:43:57.530Z,10.80
2022-09-15T10:44:57.475Z,8.30
2022-09-15T10:45:57.424Z,6.90
2022-09-15T10:46:57.334Z,5.60
2022-09-15T10:47:57.251Z,19.80
2022-09-15T10:48:57.211Z,7.70
2022-09-15T10:49:57.116Z,7.30
2022-09-15T10:50:57.064Z,6.70
2022-09-15T10:51:57.014Z,12.90
2022-09-15T10:52:56.934Z,6.10
2022-09-15T10:53:57.689Z,9.90
2022-09-15T10:54:56.835Z,7.70
2022-09-15T10:55:56.755Z,6.20
2022-09-15T10:56:56.655Z,5.10
2022-09-15T10:57:56.597Z,6.80
2022-09-15T10:58:56.540Z,3.50
2022-09-15T10:59:56.492Z,6.10
2022-09-15T11:00:56.497Z,11.10
2022-09-15T11:01:56.404Z,12.40
2022-09-15T11:02:56.277Z,11.20
2022-09-15T11:03:56.219Z,12.40
2022-09-15T11:04:56.144Z,14.50
2022-09-15T11:05:56.088Z,5.30
2022-09-15T11:06:57.576Z,9.10
2022-09-15T11:07:56.057Z,4.30
2022-09-15T11:08:55.922Z,14.10
2022-09-15T11:09:55.828Z,10.10
2022-09-15T11:10:55.787Z,12.80
2022-09-15T11:11:55.703Z,8.20
2022-09-15T11:12:57.184Z,3.80
2022-09-15T11:13:55.586Z,11.20
2022-09-15T11:14:55.760Z,9.10
2022-09-15T11:15:55.495Z,8.00
2022-09-15T11:16:55.386Z,10.60
2022-09-15T11:17:55.312Z,3.50
2022-09-15T11:18:55.303Z,4.20
2022-09-15T11:19:55.212Z,4.50
2022-09-15T11:20:55.121Z,5.20
2022-09-15T11:21:55.048Z,2.50
2022-09-15T11:22:55.234Z,5.90
2022-09-15T11:23:54.913Z,2.40
2022-09-15T11:24:54.889Z,2.80
2022-09-15T11:25:54.787Z,5.90
2022-09-15T11:26:54.716Z,7.80
2022-09-15T11:27:54.651Z,5.40
2022-09-15T11:28:54.586Z,2.60
2022-09-15T11:29:54.528Z,5.30
2022-09-15T11:30:55.241Z,2.10
2022-09-15T11:31:54.524Z,4.20
2022-09-15T11:32:57.296Z,2.70
2022-09-15T11:33:54.261Z,6.40
2022-09-15T11:34:54.221Z,6.40
2022-09-15T11:35:54.158Z,7.70
2022-09-15T11:36:54.093Z,4.90
2022-09-15T11:37:54.005Z,1.90
2022-09-15T11:38:54.062Z,12.30
2022-09-15T11:39:53.941Z,5.50
2022-09-15T11:40:53.840Z,3.70
2022-09-15T11:41:53.801Z,3.20
2022-09-15T11:42:53.711Z,3.50
2022-09-15T11:43:53.618Z,10.60
2022-09-15T11:44:53.562Z,2.10
2022-09-15T11:45:53.511Z,4.20
2022-09-15T11:46:53.534Z,2.90
2022-09-15T11:47:53.375Z,4.70
2022-09-15T11:48:53.351Z,4.40
2022-09-15T11:49:53.239Z,4.40
2022-09-15T11:50:53.169Z,2.10
2022-09-15T11:51:53.120Z,3.60
2022-09-15T11:52:53.076Z,3.70
2022-09-15T11:53:53.076Z,5.50
2022-09-15T11:54:53.708Z,1.90
2022-09-15T11:55:52.859Z,2.60
2022-09-15T11:56:52.797Z,3.50
2022-09-15T11:57:52.740Z,1.70
2022-09-15T11:58:52.675Z,6.30
2022-09-15T11:59:52.586Z,2.10
2022-09-15T12:00:52.549Z,7.10
2022-09-15T12:01:52.532Z,2.60
2022-09-15T12:02:52.452Z,4.60
2022-09-15T12:03:52.426Z,2.60
2022-09-15T12:04:52.281Z,1.80
2022-09-15T12:05:52.199Z,9.00
2022-09-15T12:06:52.197Z,9.40
2022-09-15T12:07:52.106Z,3.30
2022-09-15T12:08:52.210Z,2.80
2022-09-15T12:09:51.960Z,2.00
2022-09-15T12:10:51.903Z,2.90
2022-09-15T12:11:51.856Z,7.20
2022-09-15T12:12:52.966Z,6.80
2022-09-15T12:13:51.684Z,4.50
2022-09-15T12:14:51.674Z,2.00
2022-09-15T12:15:51.621Z,2.30
2022-09-15T12:16:51.480Z,5.00
2022-09-15T12:17:52.403Z,11.10
2022-09-15T12:18:51.381Z,6.20
2022-09-15T12:19:51.304Z,5.70
2022-09-15T12:20:53.150Z,9.30
2022-09-15T12:21:51.869Z,2.40
2022-09-15T12:22:51.132Z,3.80
2022-09-15T12:23:51.156Z,3.40
2022-09-15T12:24:51.044Z,2.90
2022-09-15T12:25:50.943Z,5.40
2022-09-15T12:26:50.870Z,1.70
2022-09-15T12:27:50.788Z,3.00
2022-09-15T12:28:51.698Z,1.70
2022-09-15T12:29:50.698Z,5.50
2022-09-15T12:30:51.558Z,4.20
2022-09-15T12:31:50.563Z,2.00
2022-09-15T12:32:50.499Z,2.90
2022-09-15T12:33:50.405Z,3.90
2022-09-15T12:34:50.351Z,8.40
2022-09-15T12:35:50.583Z,4.70
2022-09-15T12:36:51.220Z,7.30
2022-09-15T12:37:50.135Z,8.70
2022-09-15T12:38:50.094Z,8.90
2022-09-15T12:39:50.077Z,5.50
2022-09-15T12:40:49.947Z,1.90